Time;durP1;ratioP1;P1;durP2;ratioP2;P2;SDS_P1;SDS_P2;PMS_P1;PMS_P2;Temp;Humidity;BMP_temperature;BMP_pressure;BME280_temperature;BME280_humidity;BME280_pressure;Samples;Min_cycle;Max_cycle;Signal;HPM_P1;HPM_P2
2022/09/22 00:01:33;;;;;;;3.60;1.98;;;;;;;16.62;42.77;102225.97;4976008;28;20086;-69
2022/09/22 00:04:02;;;;;;;4.72;2.70;;;;;;;16.58;42.97;102213.69;4975712;28;20050;-69
2022/09/22 00:06:30;;;;;;;2.85;2.63;;;;;;;16.58;43.00;102226.38;4959863;28;20033;-69
2022/09/22 00:08:59;;;;;;;5.13;2.38;;;;;;;16.52;43.91;102219.63;4975926;28;20023;-68
2022/09/22 00:11:29;;;;;;;2.90;2.17;;;;;;;16.50;44.15;102216.16;4975863;28;20023;-69
2022/09/22 00:13:58;;;;;;;3.83;2.53;;;;;;;16.49;43.33;102229.84;4975877;28;20062;-69
2022/09/22 00:16:27;;;;;;;3.08;1.75;;;;;;;16.46;42.97;102228.28;4975779;28;20473;-69
2022/09/22 00:18:53;;;;;;;1.65;1.48;;;;;;;16.42;42.86;102218.69;4975784;28;20109;-69
2022/09/22 00:21:21;;;;;;;4.18;1.73;;;;;;;16.36;42.85;102218.38;4975526;28;20122;-69
2022/09/22 00:23:47;;;;;;;3.80;1.95;;;;;;;16.33;44.41;102214.09;4975747;28;20034;-69
2022/09/22 00:26:18;;;;;;;4.68;1.95;;;;;;;16.33;43.23;102218.66;4959346;28;20500;-68
2022/09/22 00:28:44;;;;;;;3.08;1.90;;;;;;;16.30;43.49;102225.19;4976847;28;20520;-69
2022/09/22 00:31:15;;;;;;;3.40;2.08;;;;;;;16.27;44.14;102225.44;4976469;28;20432;-69
2022/09/22 00:33:41;;;;;;;7.45;2.42;;;;;;;16.25;44.10;102228.25;4975608;28;20441;-69
2022/09/22 00:36:08;;;;;;;4.53;3.53;;;;;;;16.22;43.78;102220.41;4975291;28;20058;-69
2022/09/22 00:38:34;;;;;;;5.20;2.50;;;;;;;16.20;43.34;102214.28;4959376;28;20077;-68
2022/09/22 00:41:00;;;;;;;7.50;3.05;;;;;;;16.19;43.28;102217.97;4958859;28;20070;-69
2022/09/22 00:43:28;;;;;;;4.72;2.70;;;;;;;16.17;42.76;102213.69;4975194;28;20424;-69
2022/09/22 00:46:02;;;;;;;4.88;2.38;;;;;;;16.15;43.28;102210.25;4975134;28;20528;-69
2022/09/22 00:48:29;;;;;;;3.00;2.50;;;;;;;16.12;43.69;102214.09;4975210;28;20080;-69
2022/09/22 00:50:55;;;;;;;3.90;2.50;;;;;;;16.07;43.82;102201.94;4975009;28;20022;-69
2022/09/22 00:53:22;;;;;;;4.72;2.22;;;;;;;16.08;43.13;102209.09;4958893;28;20034;-69
2022/09/22 00:56:12;;;;;;;6.28;2.60;;;;;;;16.04;43.88;102208.47;4958762;28;20061;-69
2022/09/22 00:58:47;;;;;;;4.85;2.75;;;;;;;16.00;44.61;102201.59;4976112;28;20106;-69
2022/09/22 01:01:14;;;;;;;3.80;2.40;;;;;;;15.99;44.73;102201.75;4974870;28;20102;-69
2022/09/22 01:03:41;;;;;;;3.92;2.47;;;;;;;15.97;44.24;102196.47;4976008;28;20054;-69
2022/09/22 01:06:09;;;;;;;5.03;3.13;;;;;;;15.96;44.45;102196.59;4975976;28;20031;-69
2022/09/22 01:08:35;;;;;;;6.70;2.88;;;;;;;15.93;43.51;102189.63;4958639;28;20029;-69
2022/09/22 01:11:00;;;;;;;4.97;2.90;;;;;;;15.92;43.21;102187.03;4974760;28;20504;-69
2022/09/22 01:13:31;;;;;;;5.18;2.92;;;;;;;15.90;44.03;102189.00;4974714;28;20102;-69
2022/09/22 01:16:05;;;;;;;6.05;2.85;;;;;;;15.87;43.09;102192.84;4974705;28;20034;-68
2022/09/22 01:18:53;;;;;;;5.75;2.63;;;;;;;15.85;44.50;102196.66;4975785;28;20027;-69
2022/09/22 01:21:35;;;;;;;4.60;2.78;;;;;;;15.82;44.00;102196.91;4975749;28;20034;-68
2022/09/22 01:24:13;;;;;;;7.93;3.22;;;;;;;15.76;44.46;102192.88;4958423;28;20038;-69
2022/09/22 01:27:06;;;;;;;6.90;3.45;;;;;;;15.74;43.97;102184.06;4958610;28;20144;-68
2022/09/22 01:29:31;;;;;;;4.60;2.87;;;;;;;15.71;43.23;102179.78;4974474;28;20109;-69
2022/09/22 01:32:26;;;;;;;6.40;3.83;;;;;;;15.70;44.88;102178.03;4974337;28;20303;-69
2022/09/22 01:34:55;;;;;;;10.25;3.72;;;;;;;15.68;44.68;102177.31;4972679;28;20042;-68
2022/09/22 01:37:24;;;;;;;9.90;3.50;;;;;;;15.68;43.83;102177.31;4974295;28;20109;-68
2022/09/22 01:40:03;;;;;;;8.05;3.75;;;;;;;15.65;44.71;102174.88;4975513;28;20069;-69
2022/09/22 01:42:35;;;;;;;5.28;3.28;;;;;;;15.66;43.40;102170.34;4957875;28;20041;-69
2022/09/22 01:45:08;;;;;;;8.25;3.20;;;;;;;15.64;44.51;102165.06;4974360;28;20496;-69
2022/09/22 01:47:35;;;;;;;;;;;;;;;15.64;44.50;102166.88;4975762;28;20536;-69
2022/09/22 01:50:12;;;;;;;4.13;2.30;;;;;;;15.59;43.68;102164.59;4974004;28;19916;-69
2022/09/22 01:52:39;;;;;;;4.82;2.67;;;;;;;15.52;44.33;102155.28;4973407;28;20027;-69
2022/09/22 01:55:37;;;;;;;2.67;2.30;;;;;;;15.51;43.79;102161.69;4974065;28;20093;-69
2022/09/22 01:58:38;;;;;;;2.95;2.50;;;;;;;15.48;43.27;102159.22;4962777;28;20031;-69
2022/09/22 02:01:08;;;;;;;4.93;2.80;;;;;;;15.45;43.48;102155.88;4943559;28;20037;-68
2022/09/22 02:03:42;;;;;;;7.15;2.67;;;;;;;15.42;44.47;102157.00;4973719;28;20515;-69
2022/09/22 02:06:21;;;;;;;3.35;2.20;;;;;;;15.39;44.51;102151.84;4973799;28;20102;-69
2022/09/22 02:08:54;;;;;;;3.10;2.30;;;;;;;15.36;43.62;102152.09;4973914;28;20023;-69
2022/09/22 02:11:20;;;;;;;4.72;2.75;;;;;;;15.34;44.94;102153.22;4973790;28;20023;-69
2022/09/22 02:13:46;;;;;;;8.80;3.40;;;;;;;15.33;44.33;102146.97;4973612;28;20034;-69
2022/09/22 02:16:13;;;;;;;4.20;2.83;;;;;;;15.32;43.67;102150.66;4973749;28;20049;-69
2022/09/22 02:19:10;;;;;;;3.42;2.70;;;;;;;15.30;44.27;102141.81;4973614;28;20030;-69
2022/09/22 02:21:36;;;;;;;4.57;2.50;;;;;;;15.30;45.11;102141.81;4967419;28;20035;-69
2022/09/22 02:24:02;;;;;;;7.13;3.28;;;;;;;15.31;43.70;102148.94;4973689;28;20030;-68
2022/09/22 02:26:30;;;;;;;4.38;3.10;;;;;;;15.29;43.79;102140.13;4973562;28;20535;-68
2022/09/22 02:29:01;;;;;;;6.63;3.00;;;;;;;15.26;44.09;102139.50;4973584;28;20039;-69
2022/09/22 02:31:29;;;;;;;2.88;2.20;;;;;;;15.23;43.44;102135.22;4973404;28;20046;-68
2022/09/22 02:33:55;;;;;;;4.10;2.70;;;;;;;15.25;44.56;102141.34;4973522;28;20030;-68
2022/09/22 02:36:58;;;;;;;3.58;2.53;;;;;;;15.23;43.62;102135.22;4957265;28;20440;-69
2022/09/22 02:39:38;;;;;;;5.15;2.70;;;;;;;15.18;43.40;102132.06;4973329;28;20054;-68
2022/09/22 02:42:13;;;;;;;4.25;2.67;;;;;;;15.17;43.75;102135.72;4957114;28;20026;-68
2022/09/22 02:44:59;;;;;;;4.43;2.70;;;;;;;15.16;44.95;102134.00;4974886;28;20066;-69
2022/09/22 02:47:45;;;;;;;4.25;2.60;;;;;;;15.14;44.31;102131.44;4974569;28;20106;-69
2022/09/22 02:50:13;;;;;;;6.10;2.53;;;;;;;15.08;44.06;102120.28;4973389;28;20034;-69
2022/09/22 02:52:39;;;;;;;6.15;3.03;;;;;;;15.09;44.91;102124.72;4957240;28;20030;-69
2022/09/22 02:55:06;;;;;;;5.30;2.92;;;;;;;15.08;44.66;102121.16;4973251;28;20366;-69
2022/09/22 02:57:32;;;;;;;4.18;2.85;;;;;;;15.09;44.29;102116.63;4973349;28;20069;-68
2022/09/22 02:59:57;;;;;;;3.40;2.80;;;;;;;15.08;44.40;102120.28;4973139;28;20054;-68
2022/09/22 03:02:22;;;;;;;4.90;2.95;;;;;;;15.07;43.71;102113.19;4974254;28;20043;-69
2022/09/22 03:04:50;;;;;;;3.78;2.78;;;;;;;15.08;45.14;102117.59;4959649;28;20031;-68
2022/09/22 03:07:16;;;;;;;4.47;3.05;;;;;;;15.05;45.07;102115.13;4961332;28;20117;-69
2022/09/22 03:09:41;;;;;;;3.60;2.65;;;;;;;15.03;44.96;102122.50;4978211;28;20070;-69
2022/09/22 03:12:06;;;;;;;3.75;2.78;;;;;;;14.97;44.44;102112.22;4978209;28;20054;-69
2022/09/22 03:14:32;;;;;;;3.85;2.30;;;;;;;14.97;44.43;102112.22;4960830;28;20042;-68
2022/09/22 03:16:57;;;;;;;3.60;2.72;;;;;;;14.97;44.54;102114.91;4976689;28;20457;-68
2022/09/22 03:19:23;;;;;;;4.90;2.70;;;;;;;14.96;45.06;102110.53;4977921;28;20039;-68
2022/09/22 03:21:48;;;;;;;3.83;2.30;;;;;;;14.91;44.40;102118.09;4977926;28;20481;-68
2022/09/22 03:24:13;;;;;;;5.03;2.40;;;;;;;14.87;44.01;102111.25;4978030;28;20026;-69
2022/09/22 03:26:39;;;;;;;3.35;2.25;;;;;;;14.87;43.61;102112.13;4978101;28;20106;-68
2022/09/22 03:29:05;;;;;;;4.63;2.67;;;;;;;14.85;44.94;102107.84;4976606;28;20030;-68
2022/09/22 03:31:30;;;;;;;4.53;2.80;;;;;;;14.80;44.71;102099.25;4976736;28;20046;-69
2022/09/22 03:33:55;;;;;;;5.07;2.72;;;;;;;14.82;43.68;102105.41;4960469;28;20042;-68
2022/09/22 03:36:21;;;;;;;6.53;3.13;;;;;;;14.83;44.60;102101.69;4976657;28;20130;-69
2022/09/22 03:38:46;;;;;;;4.43;2.88;;;;;;;14.80;44.21;102100.09;4976489;28;20038;-69
2022/09/22 03:41:11;;;;;;;4.78;2.90;;;;;;;14.79;45.08;102097.56;4976440;28;20396;-68
2022/09/22 03:43:37;;;;;;;3.90;2.70;;;;;;;14.80;44.26;102104.63;4976412;28;20121;-69
2022/09/22 03:46:02;;;;;;;6.80;2.80;;;;;;;14.79;44.31;102097.56;4976512;28;20034;-68
2022/09/22 03:48:28;;;;;;;4.97;2.70;;;;;;;14.79;45.11;102097.56;4977456;28;20161;-68
2022/09/22 03:50:55;;;;;;;3.50;2.30;;;;;;;14.78;44.94;102090.44;4976191;28;20093;-68
2022/09/22 03:53:20;;;;;;;4.55;2.75;;;;;;;14.76;45.42;102098.66;4976213;28;20480;-68
2022/09/22 03:55:46;;;;;;;4.20;2.67;;;;;;;14.73;45.31;102089.94;4976085;28;20045;-68
2022/09/22 03:58:11;;;;;;;5.43;3.55;;;;;;;14.75;45.19;102090.69;4960094;28;20042;-69
2022/09/22 04:00:37;;;;;;;4.45;3.08;;;;;;;14.72;43.93;102085.53;4975906;28;20034;-69
2022/09/22 04:03:02;;;;;;;4.25;2.83;;;;;;;14.73;45.28;102093.50;4975862;28;20507;-68
2022/09/22 04:05:28;;;;;;;3.35;2.20;;;;;;;14.72;45.39;102090.91;4959885;28;20026;-69
2022/09/22 04:07:53;;;;;;;3.80;2.55;;;;;;;14.71;44.25;102097.31;4977057;28;20496;-68
2022/09/22 04:10:19;;;;;;;3.50;2.70;;;;;;;14.69;44.20;102091.16;4975899;28;20496;-68
2022/09/22 04:12:45;;;;;;;5.13;2.47;;;;;;;14.67;44.44;102087.75;4977078;28;20038;-69
2022/09/22 04:15:10;;;;;;;2.90;2.45;;;;;;;14.64;44.01;102078.06;4975193;28;20027;-69
2022/09/22 04:17:35;;;;;;;2.45;2.10;;;;;;;14.64;45.15;102086.16;4976984;28;20034;-69
2022/09/22 04:20:03;;;;;;;2.83;2.50;;;;;;;14.62;44.50;102079.19;4959683;28;20118;-69
2022/09/22 04:22:28;;;;;;;9.93;2.70;;;;;;;14.60;45.08;102075.75;4975580;28;20480;-68
2022/09/22 04:24:53;;;;;;;7.60;2.90;;;;;;;14.62;45.17;102084.56;4959768;28;20023;-68
2022/09/22 04:27:19;;;;;;;4.68;2.72;;;;;;;14.58;44.12;102082.13;4975603;28;20026;-68
2022/09/22 04:29:44;;;;;;;6.97;2.47;;;;;;;14.58;45.14;102087.50;4975576;28;20081;-69
2022/09/22 04:32:10;;;;;;;4.03;3.00;;;;;;;14.56;45.21;102080.53;4975235;28;20062;-69
2022/09/22 04:34:35;;;;;;;4.93;2.75;;;;;;;14.56;44.84;102085.94;4975424;28;20117;-68
2022/09/22 04:37:00;;;;;;;8.63;3.03;;;;;;;14.55;45.00;102090.47;4975373;28;20441;-69
2022/09/22 04:39:27;;;;;;;3.58;2.20;;;;;;;14.54;45.61;102087.91;4975268;28;20034;-68
2022/09/22 04:41:53;;;;;;;7.18;2.85;;;;;;;14.52;44.53;102085.31;4975491;28;20515;-69
2022/09/22 04:44:18;;;;;;;4.07;2.40;;;;;;;14.49;45.55;102080.16;4959384;28;20039;-69
2022/09/22 04:46:45;;;;;;;7.55;2.67;;;;;;;14.45;45.30;102077.84;4975268;28;20031;-68
2022/09/22 04:49:11;;;;;;;3.42;2.10;;;;;;;14.43;44.66;102079.81;4976413;28;20031;-68
2022/09/22 04:51:37;;;;;;;2.85;2.13;;;;;;;14.43;45.55;102080.66;4959173;28;20498;-68
2022/09/22 04:54:02;;;;;;;3.55;2.50;;;;;;;14.42;44.09;102078.97;4975299;28;20102;-68
2022/09/22 04:56:28;;;;;;;5.85;2.97;;;;;;;14.41;44.25;102076.38;4974972;28;20042;-68
2022/09/22 04:58:53;;;;;;;6.13;2.58;;;;;;;14.37;44.97;102074.91;4976219;28;20035;-68
2022/09/22 05:01:18;;;;;;;3.70;2.47;;;;;;;14.39;45.24;102079.19;4974841;28;20027;-69
2022/09/22 05:03:44;;;;;;;6.10;2.92;;;;;;;14.38;44.49;102077.47;4974867;28;20572;-68
2022/09/22 05:06:09;;;;;;;8.10;2.58;;;;;;;14.39;45.25;102073.81;4958608;28;20492;-68
2022/09/22 05:08:35;;;;;;;4.70;3.00;;;;;;;14.33;45.57;102068.91;4974670;28;20038;-68
2022/09/22 05:11:00;;;;;;;5.10;3.10;;;;;;;14.37;45.33;102078.47;4974795;28;20022;-68
2022/09/22 05:13:25;;;;;;;4.28;2.72;;;;;;;14.38;45.08;102077.47;4958683;28;20026;-68
2022/09/22 05:15:51;;;;;;;6.70;2.80;;;;;;;14.35;44.35;102077.72;4974854;28;20585;-68
2022/09/22 05:18:16;;;;;;;4.45;2.80;;;;;;;14.34;44.09;102086.81;4958579;28;20030;-68
2022/09/22 05:20:43;;;;;;;4.47;3.40;;;;;;;14.36;45.07;102082.13;4975854;28;20058;-68
2022/09/22 05:23:08;;;;;;;7.38;3.58;;;;;;;14.34;44.33;102085.94;4974607;28;20416;-69
2022/09/22 05:25:34;;;;;;;8.90;4.45;;;;;;;14.33;44.67;102076.13;4974399;28;20027;-68
2022/09/22 05:27:59;;;;;;;9.77;5.43;;;;;;;14.35;44.83;102091.19;4974748;28;20065;-69
2022/09/22 05:30:25;;;;;;;6.60;4.00;;;;;;;14.35;45.41;102096.59;4975876;28;20031;-68
2022/09/22 05:32:51;;;;;;;9.35;3.10;;;;;;;14.34;45.00;102094.03;4975678;28;20106;-68
2022/09/22 05:35:19;;;;;;;6.60;3.88;;;;;;;14.34;44.16;102096.72;4974499;28;20027;-68
2022/09/22 05:37:46;;;;;;;7.18;2.75;;;;;;;14.34;45.67;102102.13;4974359;28;20113;-68
2022/09/22 05:40:12;;;;;;;4.18;2.67;;;;;;;14.33;45.22;102112.03;4975433;28;20042;-68
2022/09/22 05:42:45;;;;;;;4.65;2.47;;;;;;;14.31;44.74;102108.56;4975221;28;20035;-69
2022/09/22 05:45:11;;;;;;;4.40;2.70;;;;;;;14.32;44.27;102113.00;4958110;28;20456;-69
2022/09/22 05:47:38;;;;;;;2.72;2.35;;;;;;;14.31;45.14;102105.88;4974049;28;20030;-68
2022/09/22 05:50:03;;;;;;;4.22;2.70;;;;;;;14.32;45.76;102107.59;4957956;28;20038;-68
2022/09/22 05:52:29;;;;;;;5.40;2.50;;;;;;;14.36;45.35;102101.00;4974152;28;20031;-68
2022/09/22 05:54:54;;;;;;;5.75;3.17;;;;;;;14.40;44.30;102107.03;4957846;28;20034;-68
2022/09/22 05:57:26;;;;;;;7.53;2.88;;;;;;;14.43;44.75;102113.00;4973833;28;20489;-69
2022/09/22 05:59:55;;;;;;;4.38;3.08;;;;;;;14.45;45.48;102105.69;4975228;28;20564;-68
2022/09/22 06:02:20;;;;;;;5.07;2.78;;;;;;;14.51;45.46;102102.50;4973802;28;20039;-68
2022/09/22 06:04:46;;;;;;;3.70;2.45;;;;;;;14.65;45.14;102105.91;4974027;28;20027;-68
2022/09/22 06:07:11;;;;;;;3.70;2.58;;;;;;;14.86;44.55;102112.25;4973753;28;20031;-69
2022/09/22 06:09:37;;;;;;;5.50;2.85;;;;;;;15.02;44.61;102107.28;4974904;28;20030;-68
2022/09/22 06:12:02;;;;;;;4.82;2.60;;;;;;;15.20;44.23;102103.09;4957767;28;20031;-68
2022/09/22 06:14:28;;;;;;;4.85;3.08;;;;;;;15.40;44.04;102109.50;4973780;28;20027;-69
2022/09/22 06:16:54;;;;;;;2.65;2.03;;;;;;;15.57;45.15;102109.84;4973814;28;20037;-68
2022/09/22 06:19:22;;;;;;;7.60;2.60;;;;;;;15.76;44.85;102113.66;4973683;28;20377;-68
2022/09/22 06:21:48;;;;;;;3.67;2.42;;;;;;;15.93;43.88;102113.09;4973533;28;20388;-69
2022/09/22 06:24:13;;;;;;;4.50;2.50;;;;;;;16.08;43.99;102109.06;4973685;28;20023;-69
2022/09/22 06:26:39;;;;;;;5.20;2.53;;;;;;;16.30;43.84;102108.91;4974781;28;20031;-69
2022/09/22 06:29:05;;;;;;;3.72;3.03;;;;;;;16.47;43.73;102102.84;4973585;28;20126;-68
2022/09/22 06:31:30;;;;;;;6.80;2.80;;;;;;;16.65;44.56;102101.25;4974594;28;20038;-69
2022/09/22 06:33:55;;;;;;;5.32;2.90;;;;;;;16.79;44.86;102103.56;4974598;28;20034;-68
2022/09/22 06:36:30;;;;;;;4.25;3.13;;;;;;;16.95;44.45;102102.16;4957289;28;20030;-69
2022/09/22 06:38:57;;;;;;;5.63;2.90;;;;;;;17.17;44.84;102107.38;4975899;28;20035;-69
2022/09/22 06:41:32;;;;;;;6.32;2.60;;;;;;;17.35;43.92;102094.81;4978748;28;20031;-69
2022/09/22 06:43:58;;;;;;;3.05;2.58;;;;;;;17.58;44.23;102107.13;4961550;28;20046;-69
2022/09/22 06:46:25;;;;;;;3.88;2.72;;;;;;;17.77;43.39;102106.25;4961302;28;20034;-68
2022/09/22 06:48:52;;;;;;;3.75;2.67;;;;;;;17.95;43.22;102107.22;4977368;28;20031;-69
2022/09/22 06:51:18;;;;;;;2.40;2.03;;;;;;;18.11;43.70;102099.34;4977399;28;20030;-69
2022/09/22 06:53:43;;;;;;;5.45;2.55;;;;;;;18.28;42.61;102101.28;4978500;28;20035;-69
2022/09/22 06:56:09;;;;;;;5.53;2.30;;;;;;;18.46;43.07;102098.63;4977177;28;20049;-69
2022/09/22 06:58:34;;;;;;;6.80;2.63;;;;;;;18.63;43.37;102094.31;4961048;28;20023;-69
2022/09/22 07:01:06;;;;;;;3.90;2.10;;;;;;;18.79;43.27;102094.53;4976955;28;20126;-69
2022/09/22 07:03:32;;;;;;;8.70;2.00;;;;;;;18.99;42.71;102096.94;4961569;28;20074;-69
2022/09/22 07:06:01;;;;;;;2.10;1.90;;;;;;;19.15;43.05;102096.28;4976917;28;20027;-69
2022/09/22 07:08:29;;;;;;;3.17;1.70;;;;;;;19.34;42.68;102100.72;4977027;28;20023;-69
2022/09/22 07:10:58;;;;;;;2.85;2.13;;;;;;;19.53;42.32;102095.16;4961051;28;20093;-69
2022/09/22 07:13:24;;;;;;;5.75;2.33;;;;;;;19.70;41.72;102097.00;4976921;28;20395;-69
2022/09/22 07:15:50;;;;;;;4.05;2.13;;;;;;;19.88;42.19;102092.38;4978123;28;20026;-69
2022/09/22 07:18:15;;;;;;;2.80;1.98;;;;;;;20.07;41.97;102089.44;4978000;28;20101;-69
2022/09/22 07:20:44;;;;;;;3.63;1.88;;;;;;;20.24;42.11;102083.13;4976775;28;20547;-68
2022/09/22 07:23:17;;;;;;;4.50;2.13;;;;;;;20.49;41.58;102088.72;4976792;28;20109;-69
2022/09/22 07:25:43;;;;;;;3.95;1.83;;;;;;;20.69;41.09;102084.72;4976738;28;20053;-69
2022/09/22 07:28:11;;;;;;;6.78;2.17;;;;;;;20.90;41.34;102077.81;4976661;28;20030;-69
2022/09/22 07:30:39;;;;;;;2.85;2.13;;;;;;;21.11;40.87;102080.09;4976705;28;20030;-69
2022/09/22 07:33:04;;;;;;;3.28;2.08;;;;;;;21.34;41.23;102086.63;4977687;28;20054;-69
2022/09/22 07:35:30;;;;;;;2.72;1.83;;;;;;;21.54;40.86;102084.44;4977521;28;20038;-69
2022/09/22 07:37:59;;;;;;;2.13;1.58;;;;;;;21.76;40.48;102086.47;4960210;28;20037;-69
2022/09/22 07:40:24;;;;;;;4.05;2.17;;;;;;;21.98;40.71;102076.75;4976187;28;20062;-69
2022/09/22 07:42:50;;;;;;;2.92;2.00;;;;;;;22.16;40.71;102082.88;4960020;28;20118;-69
2022/09/22 07:45:15;;;;;;;10.73;2.53;;;;;;;22.37;40.84;102080.41;4960227;28;20046;-69
2022/09/22 07:50:29;;;;;;;3.50;1.60;;;;;;;22.80;40.39;102070.03;4976222;28;20069;-69
2022/09/22 07:52:54;;;;;;;4.93;2.38;;;;;;;23.02;39.46;102069.22;4959893;28;20037;-69
2022/09/22 07:55:24;;;;;;;7.20;2.20;;;;;;;23.20;39.44;102067.91;4977212;28;20030;-69
2022/09/22 07:57:56;;;;;;;3.55;1.95;;;;;;;23.43;39.46;102065.22;4975949;28;20030;-69
2022/09/22 08:00:26;;;;;;;;;;;;;;;23.63;39.91;102063.69;4960116;28;20031;-69
2022/09/22 08:02:56;;;;;;;4.18;1.98;;;;;;;23.84;39.76;102064.88;4959323;28;19918;-69
2022/09/22 08:05:23;;;;;;;5.03;2.00;;;;;;;24.05;38.62;102057.63;4959819;28;20030;-69
2022/09/22 08:07:48;;;;;;;4.78;2.03;;;;;;;24.24;38.26;102061.72;4959578;28;20070;-69
2022/09/22 08:10:15;;;;;;;2.08;1.73;;;;;;;24.45;38.82;102047.28;4959588;28;20519;-69
2022/09/22 08:12:41;;;;;;;4.32;2.63;;;;;;;24.68;37.94;102054.31;4959774;28;20109;-69
2022/09/22 08:15:07;;;;;;;7.30;2.20;;;;;;;24.87;38.48;102058.41;4976865;28;20031;-69
2022/09/22 08:17:32;;;;;;;8.00;2.30;;;;;;;25.10;37.77;102058.25;4959460;28;20085;-69
2022/09/22 08:20:01;;;;;;;2.33;1.90;;;;;;;25.29;37.79;102049.38;4959378;28;20031;-69
2022/09/22 08:22:27;;;;;;;5.22;2.10;;;;;;;25.50;37.64;102052.13;4975512;28;20422;-69
2022/09/22 08:24:52;;;;;;;2.42;1.52;;;;;;;25.67;37.42;102050.81;4959393;28;20023;-70
2022/09/22 08:27:18;;;;;;;3.45;1.80;;;;;;;25.84;37.58;102052.22;4975514;28;20089;-70
2022/09/22 08:29:45;;;;;;;2.20;1.90;;;;;;;26.02;36.94;102038.81;4975472;28;20480;-70
2022/09/22 08:32:11;;;;;;;3.75;2.10;;;;;;;26.20;36.78;102045.72;4975328;28;20101;-70
2022/09/22 08:34:37;;;;;;;3.85;1.83;;;;;;;26.40;37.19;102046.72;4959169;28;20117;-69
2022/09/22 08:37:02;;;;;;;2.13;1.67;;;;;;;26.60;36.51;102048.47;4959064;28;20026;-70
2022/09/22 08:39:29;;;;;;;2.15;1.80;;;;;;;26.79;36.65;102046.91;4975183;28;20023;-70
2022/09/22 08:42:22;;;;;;;4.65;2.08;;;;;;;27.01;36.18;102045.72;4959047;28;20082;-69
2022/09/22 08:45:20;;;;;;;2.45;2.10;;;;;;;27.20;35.69;102044.06;4976676;28;20034;-70
2022/09/22 08:53:45;;;;;;;3.28;2.30;;;;;;;27.86;35.10;102053.28;4975326;28;20037;-69
2022/09/22 08:56:28;;;;;;;4.20;2.15;;;;;;;28.06;34.74;102048.59;4958628;28;20030;-71
2022/09/22 08:59:13;;;;;;;3.47;1.77;;;;;;;28.26;34.86;102046.66;4959145;28;20438;-70
2022/09/22 09:01:58;;;;;;;2.20;1.77;;;;;;;28.45;35.10;102047.66;4974520;28;20062;-71
2022/09/22 09:04:41;;;;;;;2.60;1.73;;;;;;;28.62;34.44;102045.25;4974468;28;20051;-72
2022/09/22 09:07:27;;;;;;;2.30;1.20;;;;;;;28.78;34.74;102042.88;4975830;28;20062;-72
2022/09/22 09:10:06;;;;;;;1.85;1.25;;;;;;;28.95;34.19;102039.63;4975778;28;20033;-71
2022/09/22 09:12:46;;;;;;;2.45;1.30;;;;;;;29.16;33.25;102053.94;4958346;28;20027;-72
2022/09/22 09:15:36;;;;;;;3.38;1.23;;;;;;;29.34;33.12;102050.47;4975617;28;20081;-70
2022/09/22 09:18:05;;;;;;;2.20;1.40;;;;;;;29.43;34.02;102044.44;4975609;28;20022;-71
2022/09/22 09:20:38;;;;;;;4.03;1.50;;;;;;;29.58;32.90;102051.53;4974300;28;20050;-71
2022/09/22 09:23:11;;;;;;;1.02;0.93;;;;;;;29.74;32.77;102046.28;4974334;28;20026;-71
2022/09/22 09:25:40;;;;;;;3.10;1.25;;;;;;;29.94;33.13;102051.69;4974545;28;20035;-71
2022/09/22 09:28:17;;;;;;;1.13;1.02;;;;;;;30.18;32.81;102048.03;4974184;28;20567;-71
2022/09/22 09:30:50;;;;;;;1.17;1.08;;;;;;;30.60;32.39;102039.94;4957967;28;20123;-71
2022/09/22 09:34:01;;;;;;;4.55;1.55;;;;;;;31.51;32.23;102044.22;4958031;28;20492;-71
2022/09/22 09:36:35;;;;;;;3.72;0.82;;;;;;;33.23;29.86;102042.53;4934561;29;20103;-72
2022/09/22 09:39:10;;;;;;;3.65;0.70;;;;;;;35.22;26.82;102037.72;4918920;29;20067;-72
2022/09/22 09:41:35;;;;;;;1.25;0.80;;;;;;;34.58;28.69;102031.97;4918792;29;20042;-72
2022/09/22 09:44:02;;;;;;;1.50;1.15;;;;;;;34.20;28.39;102031.97;4918655;29;20043;-72
2022/09/22 09:46:33;;;;;;;0.73;0.52;;;;;;;34.01;29.22;102033.31;4918641;29;20494;-72
2022/09/22 09:49:15;;;;;;;2.85;0.80;;;;;;;34.04;28.53;102028.09;4934568;29;20055;-72
2022/09/22 09:51:46;;;;;;;2.08;0.90;;;;;;;34.22;28.52;102018.66;4918671;29;20153;-71
2022/09/22 09:54:14;;;;;;;1.55;0.90;;;;;;;34.44;28.29;102013.94;4902722;29;20553;-73
2022/09/22 09:57:05;;;;;;;2.58;1.02;;;;;;;34.69;27.70;102019.84;4918480;29;20046;-71
2022/09/22 10:02:20;;;;;;;3.28;0.80;;;;;;;35.25;26.94;102012.09;4920620;29;20075;-70
2022/09/22 10:04:56;;;;;;;1.08;0.80;;;;;;;35.60;26.11;102006.84;4918718;29;20051;-73
2022/09/22 10:07:25;;;;;;;1.85;1.30;;;;;;;35.90;26.60;102006.25;4918380;29;20521;-72
2022/09/22 10:09:52;;;;;;;1.50;0.75;;;;;;;36.15;26.40;102001.72;4919526;28;20508;-72
2022/09/22 10:12:28;;;;;;;2.30;0.55;;;;;;;36.35;25.67;101994.53;4973499;28;20390;-72
2022/09/22 10:14:56;;;;;;;1.50;0.80;;;;;;;36.50;25.63;101992.66;4972935;28;20054;-71
2022/09/22 10:17:51;;;;;;;3.17;1.17;;;;;;;36.67;25.54;101992.44;4973498;28;20023;-71
2022/09/22 10:20:28;;;;;;;1.33;0.80;;;;;;;36.84;25.69;101989.41;4960945;28;20035;-71
2022/09/22 10:22:55;;;;;;;0.60;0.50;;;;;;;36.93;25.01;101983.03;4973335;28;20393;-72
2022/09/22 10:25:26;;;;;;;0.50;0.50;;;;;;;37.19;24.32;101987.53;4973428;28;20481;-72
2022/09/22 10:28:13;;;;;;;0.30;0.30;;;;;;;37.34;24.17;101981.97;4957292;28;20054;-71
2022/09/22 10:30:38;;;;;;;3.75;0.70;;;;;;;37.34;24.00;101984.75;4957007;28;20369;-72
2022/09/22 10:33:19;;;;;;;0.50;0.30;;;;;;;37.39;23.42;101977.47;4973291;28;20030;-71
2022/09/22 10:35:54;;;;;;;0.73;0.30;;;;;;;37.47;23.05;101982.56;4973297;28;20022;-72
2022/09/22 10:38:22;;;;;;;1.58;0.30;;;;;;;37.51;23.02;101975.28;4973261;28;20059;-72
2022/09/22 10:41:06;;;;;;;0.80;0.40;;;;;;;37.59;23.02;101967.16;4956924;28;20117;-71
2022/09/22 10:43:42;;;;;;;0.80;0.30;;;;;;;37.64;22.71;101969.09;4957017;28;20440;-71
2022/09/22 10:46:36;;;;;;;1.00;0.40;;;;;;;37.64;23.32;101963.50;4973059;28;20089;-72
2022/09/22 10:49:30;;;;;;;0.35;0.35;;;;;;;37.60;22.44;101963.25;4973151;28;20051;-72
2022/09/22 10:51:58;;;;;;;0.63;0.30;;;;;;;37.67;22.93;101968.53;4974335;28;20105;-72
2022/09/22 10:55:00;;;;;;;2.15;0.45;;;;;;;37.82;22.69;101965.72;4972985;28;20118;-71
2022/09/22 10:57:32;;;;;;;;;;;;;;;38.00;23.77;101967.91;4973626;28;20034;-72
2022/09/22 11:00:14;;;;;;;2.55;0.43;;;;;;;38.20;22.22;101961.41;4974212;28;20364;-72
2022/09/22 11:02:58;;;;;;;0.52;0.52;;;;;;;37.51;23.10;101962.13;4956536;28;20417;-71
2022/09/22 11:14:42;;;;;;;0.57;0.43;;;;;;;35.56;23.49;101958.31;4973088;28;20069;-71
2022/09/22 11:17:14;;;;;;;0.52;0.52;;;;;;;36.05;22.77;101951.41;4974062;28;20038;-72
2022/09/22 11:19:57;;;;;;;1.90;0.47;;;;;;;35.13;23.86;101952.91;4973970;28;20030;-72
2022/09/22 11:22:41;;;;;;;1.20;0.60;;;;;;;35.05;23.40;101946.69;4957354;28;20369;-72
2022/09/22 11:25:28;;;;;;;0.98;0.60;;;;;;;35.69;23.15;101943.91;4975421;28;20018;-71
2022/09/22 11:28:02;;;;;;;0.68;0.38;;;;;;;35.76;23.65;101935.31;4977624;28;20030;-72
2022/09/22 11:30:34;;;;;;;0.80;0.68;;;;;;;35.35;23.71;101942.50;4977483;28;20030;-72
2022/09/22 11:33:20;;;;;;;0.60;0.60;;;;;;;34.81;24.06;101934.22;4960144;28;20026;-73
2022/09/22 11:36:14;;;;;;;0.88;0.77;;;;;;;35.45;23.82;101934.22;4977456;28;20038;-72
2022/09/22 11:38:58;;;;;;;3.50;0.70;;;;;;;35.28;23.81;101927.97;4976285;28;20030;-72
2022/09/22 11:41:27;;;;;;;4.20;1.00;;;;;;;34.61;24.02;101917.28;4977298;28;20489;-72
2022/09/22 11:44:13;;;;;;;0.88;0.40;;;;;;;34.18;24.74;101917.28;4976096;28;20050;-72
2022/09/22 11:46:54;;;;;;;1.60;0.40;;;;;;;33.70;24.25;101918.00;4965999;28;20043;-73
2022/09/22 11:49:44;;;;;;;1.00;0.60;;;;;;;33.27;24.92;101921.50;4976034;28;20035;-73
2022/09/22 11:52:33;;;;;;;2.90;1.00;;;;;;;32.63;25.56;101920.03;4975947;28;20027;-72
2022/09/22 11:55:00;;;;;;;0.70;0.70;;;;;;;33.33;25.53;101920.47;4977095;28;20053;-72
2022/09/22 11:57:28;;;;;;;1.10;0.98;;;;;;;33.72;24.68;101902.78;4975793;28;20114;-72
2022/09/22 12:00:05;;;;;;;1.23;0.75;;;;;;;33.49;24.31;101902.09;4975908;28;20033;-71
2022/09/22 12:02:37;;;;;;;0.77;0.75;;;;;;;34.06;23.71;101897.09;4975512;28;20057;-72
2022/09/22 12:05:15;;;;;;;1.80;1.30;;;;;;;34.40;24.16;101895.84;4959659;28;20030;-71